sensor_id;sensor_type;location;lat;lon;timestamp;temperature;humidity
3868;DHT22;1949;48.152;11.528;2023-03-25T00:02:22;14.50;45.10
3868;DHT22;1949;48.152;11.528;2023-03-25T00:04:52;14.60;45.20
3868;DHT22;1949;48.152;11.528;2023-03-25T00:07:19;14.60;45.00
3868;DHT22;1949;48.152;11.528;2023-03-25T00:09:45;14.60;44.90
3868;DHT22;1949;48.152;11.528;2023-03-25T00:12:18;14.50;44.80
3868;DHT22;1949;48.152;11.528;2023-03-25T00:14:43;14.50;44.90
3868;DHT22;1949;48.152;11.528;2023-03-25T00:17:20;14.50;45.00
3868;DHT22;1949;48.152;11.528;2023-03-25T00:19:46;14.50;45.00
3868;DHT22;1949;48.152;11.528;2023-03-25T00:22:15;14.60;45.00
3868;DHT22;1949;48.152;11.528;2023-03-25T00:24:41;14.60;44.90
3868;DHT22;1949;48.152;11.528;2023-03-25T00:27:07;14.60;45.30
3868;DHT22;1949;48.152;11.528;2023-03-25T00:29:36;14.60;44.80
3868;DHT22;1949;48.152;11.528;2023-03-25T00:32:11;14.60;44.90
3868;DHT22;1949;48.152;11.528;2023-03-25T00:34:38;14.60;44.70
3868;DHT22;1949;48.152;11.528;2023-03-25T00:37:08;14.60;44.60
3868;DHT22;1949;48.152;11.528;2023-03-25T00:39:35;14.60;44.60
3868;DHT22;1949;48.152;11.528;2023-03-25T00:42:03;14.60;44.60
3868;DHT22;1949;48.152;11.528;2023-03-25T00:44:29;14.60;44.50
3868;DHT22;1949;48.152;11.528;2023-03-25T00:46:55;14.60;44.50
3868;DHT22;1949;48.152;11.528;2023-03-25T00:49:24;14.60;44.40
3868;DHT22;1949;48.152;11.528;2023-03-25T00:51:53;14.60;44.30
3868;DHT22;1949;48.152;11.528;2023-03-25T00:54:19;14.60;44.40
3868;DHT22;1949;48.152;11.528;2023-03-25T00:56:47;14.60;44.60
3868;DHT22;1949;48.152;11.528;2023-03-25T00:59:14;14.60;44.60
3868;DHT22;1949;48.152;11.528;2023-03-25T01:01:41;14.70;44.50
3868;DHT22;1949;48.152;11.528;2023-03-25T01:04:11;14.70;44.10
3868;DHT22;1949;48.152;11.528;2023-03-25T01:06:39;14.60;44.10
3868;DHT22;1949;48.152;11.528;2023-03-25T01:09:12;14.50;44.10
3868;DHT22;1949;48.152;11.528;2023-03-25T01:11:39;14.50;44.20
3868;DHT22;1949;48.152;11.528;2023-03-25T01:14:08;14.40;44.00
3868;DHT22;1949;48.152;11.528;2023-03-25T01:16:36;14.40;44.10
3868;DHT22;1949;48.152;11.528;2023-03-25T01:19:02;14.30;44.00
3868;DHT22;1949;48.152;11.528;2023-03-25T01:21:29;14.20;44.00
3868;DHT22;1949;48.152;11.528;2023-03-25T01:23:58;14.20;44.10
3868;DHT22;1949;48.152;11.528;2023-03-25T01:26:24;14.20;44.30
3868;DHT22;1949;48.152;11.528;2023-03-25T01:28:49;14.20;44.30
3868;DHT22;1949;48.152;11.528;2023-03-25T01:31:15;14.30;44.40
3868;DHT22;1949;48.152;11.528;2023-03-25T01:33:43;14.30;44.40
3868;DHT22;1949;48.152;11.528;2023-03-25T01:36:10;14.30;44.30
3868;DHT22;1949;48.152;11.528;2023-03-25T01:38:41;14.30;44.40
3868;DHT22;1949;48.152;11.528;2023-03-25T01:41:08;14.40;44.20
3868;DHT22;1949;48.152;11.528;2023-03-25T01:43:36;14.40;44.20
3868;DHT22;1949;48.152;11.528;2023-03-25T01:46:02;14.40;44.20
3868;DHT22;1949;48.152;11.528;2023-03-25T01:48:33;14.40;44.10
3868;DHT22;1949;48.152;11.528;2023-03-25T01:51:17;14.40;44.10
3868;DHT22;1949;48.152;11.528;2023-03-25T01:53:44;14.30;44.00
3868;DHT22;1949;48.152;11.528;2023-03-25T01:56:15;14.30;44.10
3868;DHT22;1949;48.152;11.528;2023-03-25T01:58:45;14.30;44.20
3868;DHT22;1949;48.152;11.528;2023-03-25T02:01:12;14.30;44.10
3868;DHT22;1949;48.152;11.528;2023-03-25T02:03:41;14.40;44.20
3868;DHT22;1949;48.152;11.528;2023-03-25T02:06:27;14.40;44.10
3868;DHT22;1949;48.152;11.528;2023-03-25T02:08:57;14.40;44.10
3868;DHT22;1949;48.152;11.528;2023-03-25T02:11:26;14.40;43.90
3868;DHT22;1949;48.152;11.528;2023-03-25T02:13:55;14.40;44.00
3868;DHT22;1949;48.152;11.528;2023-03-25T02:16:52;14.40;44.00
3868;DHT22;1949;48.152;11.528;2023-03-25T02:22:29;14.40;44.10
3868;DHT22;1949;48.152;11.528;2023-03-25T02:31:23;14.30;43.70
3868;DHT22;1949;48.152;11.528;2023-03-25T02:39:13;14.20;43.90
3868;DHT22;1949;48.152;11.528;2023-03-25T02:41:56;14.20;43.70
3868;DHT22;1949;48.152;11.528;2023-03-25T02:47:15;14.30;43.60
3868;DHT22;1949;48.152;11.528;2023-03-25T02:49:45;14.20;43.60
3868;DHT22;1949;48.152;11.528;2023-03-25T02:52:28;14.30;43.90
3868;DHT22;1949;48.152;11.528;2023-03-25T02:55:00;14.30;43.70
3868;DHT22;1949;48.152;11.528;2023-03-25T02:57:32;14.30;43.60
3868;DHT22;1949;48.152;11.528;2023-03-25T03:00:02;14.30;43.50
3868;DHT22;1949;48.152;11.528;2023-03-25T03:02:34;14.30;43.40
3868;DHT22;1949;48.152;11.528;2023-03-25T03:05:01;14.30;43.60
3868;DHT22;1949;48.152;11.528;2023-03-25T03:07:32;14.30;43.50
3868;DHT22;1949;48.152;11.528;2023-03-25T03:10:25;14.30;43.30
3868;DHT22;1949;48.152;11.528;2023-03-25T03:16:07;14.20;43.30
3868;DHT22;1949;48.152;11.528;2023-03-25T03:19:05;14.10;43.10
3868;DHT22;1949;48.152;11.528;2023-03-25T03:21:43;14.10;43.20
3868;DHT22;1949;48.152;11.528;2023-03-25T03:24:30;14.00;43.20
3868;DHT22;1949;48.152;11.528;2023-03-25T03:29:45;14.00;43.20
3868;DHT22;1949;48.152;11.528;2023-03-25T03:34:48;13.80;43.10
3868;DHT22;1949;48.152;11.528;2023-03-25T03:37:22;13.80;43.10
3868;DHT22;1949;48.152;11.528;2023-03-25T03:39:51;13.70;43.10
3868;DHT22;1949;48.152;11.528;2023-03-25T03:42:29;13.70;43.40
3868;DHT22;1949;48.152;11.528;2023-03-25T03:45:03;13.70;43.40
3868;DHT22;1949;48.152;11.528;2023-03-25T03:47:39;13.60;43.40
3868;DHT22;1949;48.152;11.528;2023-03-25T03:50:13;13.70;43.50
3868;DHT22;1949;48.152;11.528;2023-03-25T03:53:02;13.70;43.40
3868;DHT22;1949;48.152;11.528;2023-03-25T03:56:04;13.70;43.40
3868;DHT22;1949;48.152;11.528;2023-03-25T03:58:37;13.60;43.30
3868;DHT22;1949;48.152;11.528;2023-03-25T04:01:31;13.60;43.40
3868;DHT22;1949;48.152;11.528;2023-03-25T04:04:06;13.60;43.70
3868;DHT22;1949;48.152;11.528;2023-03-25T04:06:46;13.60;43.60
3868;DHT22;1949;48.152;11.528;2023-03-25T04:11:55;13.50;43.20
3868;DHT22;1949;48.152;11.528;2023-03-25T04:14:23;13.60;43.50
3868;DHT22;1949;48.152;11.528;2023-03-25T04:16:48;13.50;43.40
3868;DHT22;1949;48.152;11.528;2023-03-25T04:19:14;13.50;43.20
3868;DHT22;1949;48.152;11.528;2023-03-25T04:21:43;13.40;43.20
3868;DHT22;1949;48.152;11.528;2023-03-25T04:24:10;13.40;43.30
3868;DHT22;1949;48.152;11.528;2023-03-25T04:26:37;13.30;43.20
3868;DHT22;1949;48.152;11.528;2023-03-25T04:29:05;13.30;43.40
3868;DHT22;1949;48.152;11.528;2023-03-25T04:31:32;13.30;43.60
3868;DHT22;1949;48.152;11.528;2023-03-25T04:33:59;13.30;43.50
3868;DHT22;1949;48.152;11.528;2023-03-25T04:36:27;13.30;43.40
3868;DHT22;1949;48.152;11.528;2023-03-25T04:39:02;13.30;43.50
3868;DHT22;1949;48.152;11.528;2023-03-25T04:41:28;13.20;43.10
3868;DHT22;1949;48.152;11.528;2023-03-25T04:43:54;13.20;43.20
3868;DHT22;1949;48.152;11.528;2023-03-25T04:46:19;13.20;43.50
3868;DHT22;1949;48.152;11.528;2023-03-25T04:48:46;13.30;43.50
3868;DHT22;1949;48.152;11.528;2023-03-25T04:51:13;13.30;43.50
3868;DHT22;1949;48.152;11.528;2023-03-25T04:53:41;13.40;43.40
3868;DHT22;1949;48.152;11.528;2023-03-25T04:56:16;13.40;43.40
3868;DHT22;1949;48.152;11.528;2023-03-25T04:58:42;13.50;43.30
3868;DHT22;1949;48.152;11.528;2023-03-25T05:01:19;13.50;43.10
3868;DHT22;1949;48.152;11.528;2023-03-25T05:03:46;13.50;43.20
3868;DHT22;1949;48.152;11.528;2023-03-25T05:06:15;13.50;43.30
3868;DHT22;1949;48.152;11.528;2023-03-25T05:08:42;13.60;43.30
3868;DHT22;1949;48.152;11.528;2023-03-25T05:11:08;13.60;43.20
3868;DHT22;1949;48.152;11.528;2023-03-25T05:13:34;13.70;43.20
3868;DHT22;1949;48.152;11.528;2023-03-25T05:16:00;13.70;43.00
3868;DHT22;1949;48.152;11.528;2023-03-25T05:18:26;13.70;43.10
3868;DHT22;1949;48.152;11.528;2023-03-25T05:20:51;13.70;42.90
3868;DHT22;1949;48.152;11.528;2023-03-25T05:23:18;13.60;42.50
3868;DHT22;1949;48.152;11.528;2023-03-25T05:25:45;13.50;43.20
3868;DHT22;1949;48.152;11.528;2023-03-25T05:28:13;13.40;43.00
3868;DHT22;1949;48.152;11.528;2023-03-25T05:30:43;13.40;43.10
3868;DHT22;1949;48.152;11.528;2023-03-25T05:33:12;13.50;42.90
3868;DHT22;1949;48.152;11.528;2023-03-25T05:35:40;13.30;42.80
3868;DHT22;1949;48.152;11.528;2023-03-25T05:38:06;13.30;42.90
3868;DHT22;1949;48.152;11.528;2023-03-25T05:40:37;13.30;43.00
3868;DHT22;1949;48.152;11.528;2023-03-25T05:43:03;13.30;42.90
3868;DHT22;1949;48.152;11.528;2023-03-25T05:45:31;13.30;42.90
3868;DHT22;1949;48.152;11.528;2023-03-25T05:47:57;13.30;42.80
3868;DHT22;1949;48.152;11.528;2023-03-25T05:50:25;13.20;42.90
3868;DHT22;1949;48.152;11.528;2023-03-25T05:52:53;13.30;43.00
3868;DHT22;1949;48.152;11.528;2023-03-25T05:55:21;13.20;42.80
3868;DHT22;1949;48.152;11.528;2023-03-25T05:57:47;13.20;42.80
3868;DHT22;1949;48.152;11.528;2023-03-25T06:00:14;13.10;42.80
3868;DHT22;1949;48.152;11.528;2023-03-25T06:02:40;13.10;42.90
3868;DHT22;1949;48.152;11.528;2023-03-25T06:05:12;13.10;42.90
3868;DHT22;1949;48.152;11.528;2023-03-25T06:07:42;13.10;43.30
3868;DHT22;1949;48.152;11.528;2023-03-25T06:10:12;13.30;43.20
3868;DHT22;1949;48.152;11.528;2023-03-25T06:12:42;13.40;43.10
3868;DHT22;1949;48.152;11.528;2023-03-25T06:15:09;13.40;42.80
3868;DHT22;1949;48.152;11.528;2023-03-25T06:17:35;13.40;42.70
3868;DHT22;1949;48.152;11.528;2023-03-25T06:20:06;13.50;42.60
3868;DHT22;1949;48.152;11.528;2023-03-25T06:22:38;13.40;42.40
3868;DHT22;1949;48.152;11.528;2023-03-25T06:25:04;13.40;42.50
3868;DHT22;1949;48.152;11.528;2023-03-25T06:27:30;13.40;42.40
3868;DHT22;1949;48.152;11.528;2023-03-25T06:30:00;13.40;42.30
3868;DHT22;1949;48.152;11.528;2023-03-25T06:32:26;13.30;42.30
3868;DHT22;1949;48.152;11.528;2023-03-25T06:34:51;13.30;42.20
3868;DHT22;1949;48.152;11.528;2023-03-25T06:37:18;13.30;42.20
3868;DHT22;1949;48.152;11.528;2023-03-25T06:39:45;13.30;41.90
3868;DHT22;1949;48.152;11.528;2023-03-25T06:42:14;13.20;41.90
3868;DHT22;1949;48.152;11.528;2023-03-25T06:44:40;13.20;41.80
3868;DHT22;1949;48.152;11.528;2023-03-25T06:47:05;13.20;41.90
3868;DHT22;1949;48.152;11.528;2023-03-25T06:49:31;13.10;41.80
3868;DHT22;1949;48.152;11.528;2023-03-25T06:51:57;13.20;42.00
3868;DHT22;1949;48.152;11.528;2023-03-25T06:54:23;13.20;41.90
3868;DHT22;1949;48.152;11.528;2023-03-25T06:56:48;13.20;42.00
3868;DHT22;1949;48.152;11.528;2023-03-25T06:59:14;13.20;42.00
3868;DHT22;1949;48.152;11.528;2023-03-25T07:01:40;13.20;41.70
3868;DHT22;1949;48.152;11.528;2023-03-25T07:04:07;13.20;41.60
3868;DHT22;1949;48.152;11.528;2023-03-25T07:06:33;13.00;41.70
3868;DHT22;1949;48.152;11.528;2023-03-25T07:09:00;13.10;42.00
3868;DHT22;1949;48.152;11.528;2023-03-25T07:11:28;13.00;42.10
3868;DHT22;1949;48.152;11.528;2023-03-25T07:13:54;13.00;42.10
3868;DHT22;1949;48.152;11.528;2023-03-25T07:16:21;13.00;42.20
3868;DHT22;1949;48.152;11.528;2023-03-25T07:18:47;12.90;42.10
3868;DHT22;1949;48.152;11.528;2023-03-25T07:21:15;12.90;42.10
3868;DHT22;1949;48.152;11.528;2023-03-25T07:23:40;12.90;42.20
3868;DHT22;1949;48.152;11.528;2023-03-25T07:26:06;12.80;41.90
3868;DHT22;1949;48.152;11.528;2023-03-25T07:28:32;12.80;42.30
3868;DHT22;1949;48.152;11.528;2023-03-25T07:30:58;12.80;42.40
3868;DHT22;1949;48.152;11.528;2023-03-25T07:33:24;12.80;42.20
3868;DHT22;1949;48.152;11.528;2023-03-25T07:35:49;12.80;42.30
3868;DHT22;1949;48.152;11.528;2023-03-25T07:38:15;12.80;42.40
3868;DHT22;1949;48.152;11.528;2023-03-25T07:40:41;12.80;42.30
3868;DHT22;1949;48.152;11.528;2023-03-25T07:43:07;12.80;42.50
3868;DHT22;1949;48.152;11.528;2023-03-25T07:45:34;12.80;42.40
3868;DHT22;1949;48.152;11.528;2023-03-25T07:48:00;12.80;42.20
3868;DHT22;1949;48.152;11.528;2023-03-25T07:50:28;12.80;42.10
3868;DHT22;1949;48.152;11.528;2023-03-25T07:52:54;12.70;42.20
3868;DHT22;1949;48.152;11.528;2023-03-25T07:55:20;12.80;42.40
3868;DHT22;1949;48.152;11.528;2023-03-25T07:57:46;12.80;42.60
3868;DHT22;1949;48.152;11.528;2023-03-25T08:00:12;12.80;42.20
3868;DHT22;1949;48.152;11.528;2023-03-25T08:02:38;12.80;42.40
3868;DHT22;1949;48.152;11.528;2023-03-25T08:05:05;12.80;42.30
3868;DHT22;1949;48.152;11.528;2023-03-25T08:07:32;12.80;42.20
3868;DHT22;1949;48.152;11.528;2023-03-25T08:09:57;12.70;42.20
3868;DHT22;1949;48.152;11.528;2023-03-25T08:12:23;12.70;42.40
3868;DHT22;1949;48.152;11.528;2023-03-25T08:14:49;12.70;42.30
3868;DHT22;1949;48.152;11.528;2023-03-25T08:17:15;12.70;42.50
3868;DHT22;1949;48.152;11.528;2023-03-25T08:19:41;12.80;42.80
3868;DHT22;1949;48.152;11.528;2023-03-25T08:22:06;12.80;42.70
3868;DHT22;1949;48.152;11.528;2023-03-25T08:24:32;12.90;42.50
3868;DHT22;1949;48.152;11.528;2023-03-25T08:26:58;13.00;42.60
3868;DHT22;1949;48.152;11.528;2023-03-25T08:29:27;12.90;42.30
3868;DHT22;1949;48.152;11.528;2023-03-25T08:31:54;13.00;42.60
3868;DHT22;1949;48.152;11.528;2023-03-25T08:34:21;13.10;42.70
3868;DHT22;1949;48.152;11.528;2023-03-25T08:36:47;13.20;42.60
3868;DHT22;1949;48.152;11.528;2023-03-25T08:39:15;13.20;42.50
3868;DHT22;1949;48.152;11.528;2023-03-25T08:41:42;13.20;42.50
3868;DHT22;1949;48.152;11.528;2023-03-25T08:44:08;13.30;42.90
3868;DHT22;1949;48.152;11.528;2023-03-25T08:46:34;13.40;42.80
3868;DHT22;1949;48.152;11.528;2023-03-25T08:49:01;13.40;42.60
3868;DHT22;1949;48.152;11.528;2023-03-25T08:51:27;13.50;42.70
3868;DHT22;1949;48.152;11.528;2023-03-25T08:53:53;13.50;42.50
3868;DHT22;1949;48.152;11.528;2023-03-25T08:56:19;13.50;42.40
3868;DHT22;1949;48.152;11.528;2023-03-25T08:58:45;13.60;42.50
3868;DHT22;1949;48.152;11.528;2023-03-25T09:01:10;13.60;42.50
3868;DHT22;1949;48.152;11.528;2023-03-25T09:03:37;13.60;42.60
3868;DHT22;1949;48.152;11.528;2023-03-25T09:06:06;13.60;42.70
3868;DHT22;1949;48.152;11.528;2023-03-25T09:08:33;13.70;42.50
3868;DHT22;1949;48.152;11.528;2023-03-25T09:11:00;13.70;42.20
3868;DHT22;1949;48.152;11.528;2023-03-25T09:13:26;13.60;42.30
3868;DHT22;1949;48.152;11.528;2023-03-25T09:15:51;13.60;42.10
3868;DHT22;1949;48.152;11.528;2023-03-25T09:18:17;13.60;42.20
3868;DHT22;1949;48.152;11.528;2023-03-25T09:20:43;13.60;42.30
3868;DHT22;1949;48.152;11.528;2023-03-25T09:23:13;13.60;42.60
3868;DHT22;1949;48.152;11.528;2023-03-25T09:25:39;13.60;42.20
3868;DHT22;1949;48.152;11.528;2023-03-25T09:28:05;13.60;42.00
3868;DHT22;1949;48.152;11.528;2023-03-25T09:30:30;13.60;42.10
3868;DHT22;1949;48.152;11.528;2023-03-25T09:32:56;13.50;42.40
3868;DHT22;1949;48.152;11.528;2023-03-25T09:35:22;13.60;42.40
3868;DHT22;1949;48.152;11.528;2023-03-25T09:37:48;13.60;42.20
3868;DHT22;1949;48.152;11.528;2023-03-25T09:40:15;13.60;42.20
3868;DHT22;1949;48.152;11.528;2023-03-25T09:43:19;13.60;42.30
3868;DHT22;1949;48.152;11.528;2023-03-25T09:45:47;13.60;42.40
3868;DHT22;1949;48.152;11.528;2023-03-25T09:51:49;13.70;42.40
3868;DHT22;1949;48.152;11.528;2023-03-25T09:53:55;13.70;42.10
3868;DHT22;1949;48.152;11.528;2023-03-25T09:56:26;13.80;42.50
3868;DHT22;1949;48.152;11.528;2023-03-25T09:59:15;13.90;42.10
3868;DHT22;1949;48.152;11.528;2023-03-25T10:04:52;14.00;42.20
3868;DHT22;1949;48.152;11.528;2023-03-25T10:07:51;14.10;42.00
3868;DHT22;1949;48.152;11.528;2023-03-25T10:10:34;14.10;42.00
3868;DHT22;1949;48.152;11.528;2023-03-25T10:15:56;14.30;42.00
3868;DHT22;1949;48.152;11.528;2023-03-25T10:21:18;14.30;41.80
3868;DHT22;1949;48.152;11.528;2023-03-25T10:29:12;14.40;41.20
3868;DHT22;1949;48.152;11.528;2023-03-25T10:31:47;14.30;41.20
3868;DHT22;1949;48.152;11.528;2023-03-25T10:34:22;14.30;41.40
3868;DHT22;1949;48.152;11.528;2023-03-25T10:36:54;14.30;41.50
3868;DHT22;1949;48.152;11.528;2023-03-25T10:39:23;14.40;41.60
3868;DHT22;1949;48.152;11.528;2023-03-25T10:41:58;14.40;41.60
3868;DHT22;1949;48.152;11.528;2023-03-25T10:44:25;14.50;41.60
3868;DHT22;1949;48.152;11.528;2023-03-25T10:47:11;14.50;41.50
3868;DHT22;1949;48.152;11.528;2023-03-25T10:49:39;14.40;41.30
3868;DHT22;1949;48.152;11.528;2023-03-25T10:52:09;14.40;41.60
3868;DHT22;1949;48.152;11.528;2023-03-25T10:54:44;14.40;41.40
3868;DHT22;1949;48.152;11.528;2023-03-25T10:57:21;14.50;41.40
3868;DHT22;1949;48.152;11.528;2023-03-25T10:59:52;14.50;41.30
3868;DHT22;1949;48.152;11.528;2023-03-25T11:02:23;14.50;41.30
3868;DHT22;1949;48.152;11.528;2023-03-25T11:04:54;14.50;41.20
3868;DHT22;1949;48.152;11.528;2023-03-25T11:07:27;14.50;41.00
3868;DHT22;1949;48.152;11.528;2023-03-25T11:10:27;14.50;41.20
3868;DHT22;1949;48.152;11.528;2023-03-25T11:12:54;14.60;41.20
3868;DHT22;1949;48.152;11.528;2023-03-25T11:15:25;14.60;41.00
3868;DHT22;1949;48.152;11.528;2023-03-25T11:17:59;14.60;40.90
3868;DHT22;1949;48.152;11.528;2023-03-25T11:20:38;14.60;40.60
3868;DHT22;1949;48.152;11.528;2023-03-25T11:23:32;14.60;40.70
3868;DHT22;1949;48.152;11.528;2023-03-25T11:26:28;14.50;40.70
3868;DHT22;1949;48.152;11.528;2023-03-25T11:29:00;14.40;41.00
3868;DHT22;1949;48.152;11.528;2023-03-25T11:31:27;14.40;41.00
3868;DHT22;1949;48.152;11.528;2023-03-25T11:36:37;14.40;40.90
3868;DHT22;1949;48.152;11.528;2023-03-25T11:39:18;14.40;40.90
3868;DHT22;1949;48.152;11.528;2023-03-25T11:41:49;14.40;41.00
3868;DHT22;1949;48.152;11.528;2023-03-25T11:46:54;14.50;41.00
3868;DHT22;1949;48.152;11.528;2023-03-25T11:49:22;14.50;41.10
3868;DHT22;1949;48.152;11.528;2023-03-25T11:52:28;14.60;41.20
3868;DHT22;1949;48.152;11.528;2023-03-25T11:54:54;14.70;41.30
3868;DHT22;1949;48.152;11.528;2023-03-25T11:57:26;14.80;41.10
3868;DHT22;1949;48.152;11.528;2023-03-25T12:00:15;14.80;40.90
3868;DHT22;1949;48.152;11.528;2023-03-25T12:02:42;14.80;40.70
3868;DHT22;1949;48.152;11.528;2023-03-25T12:07:45;14.70;40.70
3868;DHT22;1949;48.152;11.528;2023-03-25T12:10:23;14.70;40.90
3868;DHT22;1949;48.152;11.528;2023-03-25T12:27:48;15.40;40.90
3868;DHT22;1949;48.152;11.528;2023-03-25T12:36:23;15.40;40.20
3868;DHT22;1949;48.152;11.528;2023-03-25T12:39:20;15.30;40.30
3868;DHT22;1949;48.152;11.528;2023-03-25T12:47:46;15.00;40.40
3868;DHT22;1949;48.152;11.528;2023-03-25T12:58:32;15.00;40.50
3868;DHT22;1949;48.152;11.528;2023-03-25T13:09:31;15.30;40.30
3868;DHT22;1949;48.152;11.528;2023-03-25T13:12:17;15.30;40.20
3868;DHT22;1949;48.152;11.528;2023-03-25T13:15:04;15.30;40.20
3868;DHT22;1949;48.152;11.528;2023-03-25T13:17:43;15.50;40.30
3868;DHT22;1949;48.152;11.528;2023-03-25T13:20:10;15.70;40.60
3868;DHT22;1949;48.152;11.528;2023-03-25T13:22:41;16.00;40.40
3868;DHT22;1949;48.152;11.528;2023-03-25T13:25:34;16.10;40.10
3868;DHT22;1949;48.152;11.528;2023-03-25T13:28:09;16.30;39.80
3868;DHT22;1949;48.152;11.528;2023-03-25T13:30:38;16.40;39.80
3868;DHT22;1949;48.152;11.528;2023-03-25T13:33:20;16.60;39.70
3868;DHT22;1949;48.152;11.528;2023-03-25T13:36:29;16.60;39.30
3868;DHT22;1949;48.152;11.528;2023-03-25T13:39:00;16.70;40.00
3868;DHT22;1949;48.152;11.528;2023-03-25T13:41:41;16.70;39.10
3868;DHT22;1949;48.152;11.528;2023-03-25T13:44:22;16.60;39.00
3868;DHT22;1949;48.152;11.528;2023-03-25T13:46:56;16.50;39.10
3868;DHT22;1949;48.152;11.528;2023-03-25T13:49:31;16.40;39.00
3868;DHT22;1949;48.152;11.528;2023-03-25T13:51:59;16.40;39.30
3868;DHT22;1949;48.152;11.528;2023-03-25T13:54:36;16.50;39.60
3868;DHT22;1949;48.152;11.528;2023-03-25T14:08:30;16.70;39.10
3868;DHT22;1949;48.152;11.528;2023-03-25T14:11:14;16.70;39.10
3868;DHT22;1949;48.152;11.528;2023-03-25T14:13:57;17.00;39.40
3868;DHT22;1949;48.152;11.528;2023-03-25T14:16:31;17.30;39.30
3868;DHT22;1949;48.152;11.528;2023-03-25T14:19:02;17.60;39.00
3868;DHT22;1949;48.152;11.528;2023-03-25T14:21:49;17.90;38.50
3868;DHT22;1949;48.152;11.528;2023-03-25T14:24:27;18.10;38.60
3868;DHT22;1949;48.152;11.528;2023-03-25T14:26:58;18.30;38.00
3868;DHT22;1949;48.152;11.528;2023-03-25T14:32:39;18.70;38.20
3868;DHT22;1949;48.152;11.528;2023-03-25T14:48:37;18.70;37.40
3868;DHT22;1949;48.152;11.528;2023-03-25T14:56:25;18.00;36.80
3868;DHT22;1949;48.152;11.528;2023-03-25T14:58:57;17.90;37.40
3868;DHT22;1949;48.152;11.528;2023-03-25T15:01:34;17.80;36.90
3868;DHT22;1949;48.152;11.528;2023-03-25T15:04:30;17.70;37.10
3868;DHT22;1949;48.152;11.528;2023-03-25T15:06:56;17.70;37.40
3868;DHT22;1949;48.152;11.528;2023-03-25T15:09:22;17.80;37.20
3868;DHT22;1949;48.152;11.528;2023-03-25T15:11:57;17.90;37.40
3868;DHT22;1949;48.152;11.528;2023-03-25T15:14:35;18.10;38.00
3868;DHT22;1949;48.152;11.528;2023-03-25T15:17:11;18.10;36.90
3868;DHT22;1949;48.152;11.528;2023-03-25T15:22:35;17.80;36.80
3868;DHT22;1949;48.152;11.528;2023-03-25T15:25:02;17.60;36.90
3868;DHT22;1949;48.152;11.528;2023-03-25T15:35:36;17.30;37.10
3868;DHT22;1949;48.152;11.528;2023-03-25T15:41:13;17.30;37.50
3868;DHT22;1949;48.152;11.528;2023-03-25T15:56:05;16.50;37.40
3868;DHT22;1949;48.152;11.528;2023-03-25T15:58:39;16.40;37.70
3868;DHT22;1949;48.152;11.528;2023-03-25T16:01:16;16.30;37.90
3868;DHT22;1949;48.152;11.528;2023-03-25T16:03:53;16.30;38.00
3868;DHT22;1949;48.152;11.528;2023-03-25T16:06:20;16.50;38.60
3868;DHT22;1949;48.152;11.528;2023-03-25T16:08:48;16.90;38.60
3868;DHT22;1949;48.152;11.528;2023-03-25T16:13:47;17.10;37.30
3868;DHT22;1949;48.152;11.528;2023-03-25T16:16:26;17.20;38.00
3868;DHT22;1949;48.152;11.528;2023-03-25T16:18:54;17.40;37.00
3868;DHT22;1949;48.152;11.528;2023-03-25T16:21:20;17.50;37.00
3868;DHT22;1949;48.152;11.528;2023-03-25T16:23:51;17.30;36.90
3868;DHT22;1949;48.152;11.528;2023-03-25T16:26:36;17.00;36.90
3868;DHT22;1949;48.152;11.528;2023-03-25T16:29:15;16.80;37.00
3868;DHT22;1949;48.152;11.528;2023-03-25T16:31:53;16.50;37.30
3868;DHT22;1949;48.152;11.528;2023-03-25T16:34:19;16.30;37.40
3868;DHT22;1949;48.152;11.528;2023-03-25T16:36:46;16.20;37.50
3868;DHT22;1949;48.152;11.528;2023-03-25T16:39:14;16.00;37.60
3868;DHT22;1949;48.152;11.528;2023-03-25T16:42:04;15.80;37.70
3868;DHT22;1949;48.152;11.528;2023-03-25T16:44:35;15.60;37.70
3868;DHT22;1949;48.152;11.528;2023-03-25T16:47:02;15.50;38.10
3868;DHT22;1949;48.152;11.528;2023-03-25T16:49:34;15.50;38.20
3868;DHT22;1949;48.152;11.528;2023-03-25T16:52:06;15.40;38.30
3868;DHT22;1949;48.152;11.528;2023-03-25T16:54:42;15.50;38.60
3868;DHT22;1949;48.152;11.528;2023-03-25T16:57:24;15.50;38.60
3868;DHT22;1949;48.152;11.528;2023-03-25T16:59:52;15.50;38.50
3868;DHT22;1949;48.152;11.528;2023-03-25T17:02:27;15.50;38.20
3868;DHT22;1949;48.152;11.528;2023-03-25T17:04:53;15.40;38.30
3868;DHT22;1949;48.152;11.528;2023-03-25T17:07:27;15.30;38.30
3868;DHT22;1949;48.152;11.528;2023-03-25T17:09:59;15.20;38.30
3868;DHT22;1949;48.152;11.528;2023-03-25T17:12:26;15.10;38.20
3868;DHT22;1949;48.152;11.528;2023-03-25T17:14:57;15.10;38.60
3868;DHT22;1949;48.152;11.528;2023-03-25T17:17:43;15.10;38.70
3868;DHT22;1949;48.152;11.528;2023-03-25T17:20:17;15.00;38.50
3868;DHT22;1949;48.152;11.528;2023-03-25T17:23:06;15.00;38.70
3868;DHT22;1949;48.152;11.528;2023-03-25T17:30:58;15.00;38.80
3868;DHT22;1949;48.152;11.528;2023-03-25T17:35:54;14.90;38.70
3868;DHT22;1949;48.152;11.528;2023-03-25T17:38:26;14.80;38.80
3868;DHT22;1949;48.152;11.528;2023-03-25T17:41:01;14.80;38.60
3868;DHT22;1949;48.152;11.528;2023-03-25T17:43:30;14.70;38.90
3868;DHT22;1949;48.152;11.528;2023-03-25T17:45:57;14.70;39.00
3868;DHT22;1949;48.152;11.528;2023-03-25T17:48:24;14.60;38.90
3868;DHT22;1949;48.152;11.528;2023-03-25T17:50:52;14.60;39.00
3868;DHT22;1949;48.152;11.528;2023-03-25T17:53:19;14.50;38.90
3868;DHT22;1949;48.152;11.528;2023-03-25T17:55:45;14.40;39.60
3868;DHT22;1949;48.152;11.528;2023-03-25T17:58:13;14.30;39.30
3868;DHT22;1949;48.152;11.528;2023-03-25T18:00:39;14.40;39.30
3868;DHT22;1949;48.152;11.528;2023-03-25T18:03:14;14.30;39.20
3868;DHT22;1949;48.152;11.528;2023-03-25T18:05:42;14.30;39.40
3868;DHT22;1949;48.152;11.528;2023-03-25T18:08:14;14.30;39.40
3868;DHT22;1949;48.152;11.528;2023-03-25T18:10:40;14.30;39.40
3868;DHT22;1949;48.152;11.528;2023-03-25T18:13:07;14.20;39.20
3868;DHT22;1949;48.152;11.528;2023-03-25T18:15:33;14.20;39.40
3868;DHT22;1949;48.152;11.528;2023-03-25T18:17:59;14.20;40.10
3868;DHT22;1949;48.152;11.528;2023-03-25T18:20:29;14.20;39.60
3868;DHT22;1949;48.152;11.528;2023-03-25T18:22:55;14.30;39.70
3868;DHT22;1949;48.152;11.528;2023-03-25T18:25:21;14.30;39.60
3868;DHT22;1949;48.152;11.528;2023-03-25T18:27:51;14.40;39.70
3868;DHT22;1949;48.152;11.528;2023-03-25T18:30:49;14.40;39.80
3868;DHT22;1949;48.152;11.528;2023-03-25T18:33:16;14.50;39.70
3868;DHT22;1949;48.152;11.528;2023-03-25T18:35:42;14.60;39.70
3868;DHT22;1949;48.152;11.528;2023-03-25T18:38:14;14.70;39.60
3868;DHT22;1949;48.152;11.528;2023-03-25T18:40:41;14.60;39.30
3868;DHT22;1949;48.152;11.528;2023-03-25T18:43:07;14.60;39.70
3868;DHT22;1949;48.152;11.528;2023-03-25T18:45:33;14.60;39.40
3868;DHT22;1949;48.152;11.528;2023-03-25T18:48:00;14.50;39.40
3868;DHT22;1949;48.152;11.528;2023-03-25T18:50:30;14.40;39.30
3868;DHT22;1949;48.152;11.528;2023-03-25T18:52:57;14.30;39.50
3868;DHT22;1949;48.152;11.528;2023-03-25T18:55:25;14.20;39.70
3868;DHT22;1949;48.152;11.528;2023-03-25T18:57:52;14.10;39.70